首页
METAR-TAF:

METAR-TAF

机场 :

Moore County Airport

Pinehurst / 南派恩斯, 北卡罗来纳州, 美国

纬度: 35-14N, 经度: 079-24W, 海拔: 141米

当前天气观测

该预报发布于49分钟前的08:56 UTC
静风
温度 13°C
湿度 94%
气压 1023 hPa
能見度: 16.1公里
天空无云

METAR: KSOP 010856Z AUTO 00000KT 10SM CLR 13/12 A3021 RMK AO2 SLP232 T01280122 51012

时间: 05:45 (09:45 UTC)


TAF: 丢失

超过4000个机场的气象观测和天气预报(METAR&TAF报告)。

可查询的气象台以黄色和红色小点在地图上表示。

将鼠标移到小点上方,可查看气象台名称。

然后点击查看天气观测和预报。

如需切换地图:点击带黑十字的绿色按钮放大地图;点击带横线的绿色按钮缩小地图;或者点击绿色箭头查看邻近地区的地图。


METAR-TAF: